This is the latest recevied weather packets stored in our database for station/object DG9LAO-6. If no packets are shown the sender has not sent any weather packets the latest 10 day(s).
| Time | Temp. | Humidity | Pressure | Rain* | Wind** | Luminosity | Snow |
|---|---|---|---|---|---|---|---|
| 1777605548 | 4.44° C | 85% | 1027.9 hPa | 0 mm | - | - | - |
| 1777604948 | 5° C | 85% | 1027.9 hPa | 0 mm | - | - | - |
| 1777599551 | 5.56° C | 83% | 1028.1 hPa | 0 mm | - | - | - |
| 1777592950 | 7.22° C | 78% | 1028.6 hPa | 0 mm | - | - | - |
| 1777583353 | 10.56° C | 70% | 1031 hPa | 0 mm | - | - | - |
| 1777573750 | 14.44° C | 61% | 1028.6 hPa | 0 mm | - | - | - |
| 1777557552 | 17.78° C | 55% | 1030.8 hPa | 0 mm | - | - | - |
| 1777540752 | 16.67° C | 58% | 1031.4 hPa | 0 mm | - | - | - |
| 1777528750 | 7.22° C | 88% | 1031.2 hPa | 0 mm | - | - | - |
| 1777522149 | 2.22° C | 87% | 1031.1 hPa | 0 mm | - | - | - |
| 1777514951 | 3.33° C | 84% | 1030.8 hPa | 0 mm | - | - | - |
| 1777508350 | 4.44° C | 81% | 1030.9 hPa | 0 mm | - | - | - |
| 1777499949 | 7.22° C | 72% | 1030.4 hPa | 0 mm | - | - | - |
| 1777495752 | 8.89° C | 68% | 1029.9 hPa | 0 mm | - | - | - |
| 1777490951 | 10.56° C | 63% | 1029.6 hPa | 0 mm | - | - | - |
| 1777484955 | 13.89° C | 54% | 1031.6 hPa | 0 mm | - | - | - |
| 1777484950 | 13.89° C | 55% | 1029.5 hPa | 0 mm | - | - | - |
| 1777482555 | 14.44° C | 53% | 1031.5 hPa | 0 mm | - | - | - |
| 1777482550 | 14.44° C | 53% | 1029.6 hPa | 0 mm | - | - | - |
| 1777479553 | 15° C | 53% | 1029.7 hPa | 0 mm | - | - | - |
| 1777475352 | 15.56° C | 51% | 1029.8 hPa | 0 mm | - | - | - |
| 1777467551 | 16.11° C | 49% | 1031.2 hPa | 0 mm | - | - | - |
| 1777455549 | 14.44° C | 57% | 1030.1 hPa | 0 mm | - | - | - |
| 1777453749 | 13.89° C | 61% | 1030.2 hPa | 0 mm | - | - | - |
| 1777452549 | 13.33° C | 63% | 1030.1 hPa | 0 mm | - | - | - |
* Rain latest hour (hover to see other rain measurements)
** Current wind speed in m/s (hover to see current wind gust speed)